Who's Online

We have 5 guests online

GK Weather

An error occured during parsing XML data. Please try again.

Aviation WX

[source: ADDS]
METAR
KIAD 240752Z 24004KT 10SM CLR 03/M03 A3004 RMK AO2 SLP173 T00331028 =
TAF
KIAD 240520Z 2406/2512 32008KT P6SM SKC FM241300 32008G16KT P6SM FEW250 FM242100 33005KT P6SM SCT250 FM250000 VRB03KT P6SM SCT250 FM250900 13004KT P6SM BKN130 =
SR / SS: 00:03 / 13:36 UTC (Washington-Dulles 2014-04-24)

JoomlaWatch Agent

Home Links
We are regularly out on the Web. When we find a great site we list it.